默认 日期 大小 文件数 浏览量 最新下载 xml
melodic磁力链接相关资源由用户搜索指令自动获取,结果来源于网络,本站不存储任何资料,亦不承担任何责任,请于24小时内删除,搜索到1871个磁力,用时2ms。
    {"folder.jpg": 54060, "04. Arctica - Kate (Original Mix).mp3": 15295754, "08. Baseman - Wind (Original Mix).mp3": 10928080, "06. Iron Iden - Lost (Original Mix).mp3": 9432839, "13. Syn Drome - Yuliya (Original Mix).mp3": 15041860, "14. Schastye - Continuum ...
创建时间: 2019-01-22 17:12:45 大小:262.14 MB 文件数量:21 热度:4 最近下载:2022-11-12 08:39:33
    {"cover.bmp": 608102, "09. KhemehK and Bogusdank - Omni.mp3": 13030187, "19. Zedd - Spectrum (Savant Remix).mp3": 11688960, "17. Purity Ring - Obedear (CRNKN Remix).mp3": 12133477, "21. Blackmill_-_Friend (www_muzon-club_ru).mp3": 14090970, "14. Misclick - ...
创建时间: 2019-01-23 12:06:58 大小:382.44 MB 文件数量:36 热度:3 最近下载:2022-11-12 10:36:04
    {"Kit_01_(Key_B)_(120BPM)": {"_(WAVs)_Loops": {"KIT 01 - 120bpm B_FX 1.wav": 2118326, "KIT 01 - 120bpm B_FX 2.wav": 2118326, "KIT 01 - 120bpm B_FX 3.wav": 2118326, "KIT 01 - 120bpm B_FX 4.wav": 2118326, "KIT 01 - 120bpm B_FX 5.wav": 4235126, "KIT 01 - ...
创建时间: 2019-01-23 21:19:35 大小:1.14 GB 文件数量:457 热度:6 最近下载:2025-02-01 03:01:44
    {"Cover.jpg": 65203, "01 Defy.mp3": 1466767, "07 Ashes.mp3": 11552124, "10 Of a Nation.mp3": 9147827, "02 End of Trust.mp3": 10462310, "08 In Decadence.mp3": 9515632, "09 New Disorder.mp3": 9396514, "05 To the Innocent.mp3": 8747638, "06 Dawn of the Deaf. ...
创建时间: 2019-01-24 06:12:52 大小:84.31 MB 文件数量:11 热度:6 最近下载:2025-06-06 14:03:02
    {"FS_NE_MF_KIT_01_128BPM_KEYGMAJOR": {"MIDI": {"Bass.mid": 374, "Chords.mid": 1078, "Intro Arp.mid": 520, "Intro Pad.mid": 222}, "WAVE": {"Arp.wav": 3970630, "Pad.wav": 3970630, "Vox.wav": 3970630, "Bass.wav": 3970630, "Clap.wav": 3970630, "Kick.wav": ...
创建时间: 2019-01-24 19:19:28 大小:771.73 MB 文件数量:196 热度:7 最近下载:2024-07-13 18:47:01
    {"076. Nolita - United Forever (Edit).mp3": 7599688, "041. Mitiska - Sparrow (Original Mix).mp3": 8482380, "073. Yuri Kane - Obsession (Radio Edit).mp3": 8517032, "038. Witness45 - Lightspeed (Radio Edit).mp3": 9032169, "094. Stargazers - No ...
创建时间: 2019-01-24 22:20:36 大小:1.13 GB 文件数量:100 热度:6 最近下载:2022-11-12 09:43:58
    {"info.txt": 3491, "Jane-04-Moving.mp3": 9451230, "Jane-01-Redskin.mp3": 21435165, "Jane-03-Dandelion.mp3": 5607053, "Jane-05-Waterfall.mp3": 10670629, "Jane-07-Here We Are.mp3": 13498124, "Jane-06-Like A Queen.mp3": 6325946, "Jane-02-Out In The Rain.mp3": ...
创建时间: 2019-01-27 13:08:24 大小:91.22 MB 文件数量:10 热度:4 最近下载:2022-11-12 10:34:33
    {"08 Arrival.mp3": 11330836, "02 Unreality.mp3": 12171256, "05 Empty room.mp3": 12926068, "03 Demon inside.mp3": 15995428, "07 Back in time.mp3": 9897424, "04 War creations.mp3": 10801528, "09 Last sacrifice.mp3": 12950080, "01 Lord of mortals.mp3": ...
创建时间: 2019-01-27 18:25:37 大小:103.41 MB 文件数量:9 热度:5 最近下载:2022-11-15 20:27:22
    {"cover.jpg": 68346, "25. Okera - I Hope.mp3": 13220092, "01. Artas - Barbossa.mp3": 13070672, "30. Nightrage - Scars.mp3": 8779276, "58. Be'lakor - Abeyance.mp3": 19397529, "42. Amorphis - The smoke.mp3": 8761512, "54. Dethklok - Andromeda.mp3": 8317432, ...
创建时间: 2019-01-27 21:17:44 大小:643.97 MB 文件数量:61 热度:6 最近下载:2022-11-15 19:02:52
    {"77 P.O.S. - Gravity.mp3": 15542125, "02 D'Alt Vila - Breathing.mp3": 5036719, "69 Zoo Brazil - Crossroads.mp3": 17309045, "109 Tom Cloud - Told You So.mp3": 22190816, "23 Tom Cloud - Mercury Room.mp3": 21658957, "03 Luz Divina - In your Eyes.mp3": ...
创建时间: 2019-01-28 00:49:31 大小:2.03 GB 文件数量:117 热度:5 最近下载:2022-11-15 19:53:35
    {"Cry.mp3": 10620676, "Burn.mp3": 10285358, "Lies.mp3": 8689998, "Liza.mp3": 8974670, "Angelin.mp3": 10641710, "Haunted.mp3": 12128590, "New Skin.mp3": 8456526, "Dangerous.mp3": 7799118, "Inception.mp3": 10240334, "Me And You.mp3": 12237134, "The Mirror. ...
创建时间: 2019-01-28 01:27:38 大小:572.09 MB 文件数量:56 热度:5 最近下载:2022-11-12 08:39:40
    {"BK": {"scan00001.jpg": 3273497, "scan00002.jpg": 2887468, "scan00003.jpg": 1543847}, "永遠の絆.mp3": 6507952, "水際の迎撃戦.mp3": 7185053, "工廠悪戯大作戦.mp3": 7601972, "いざ、参ります!.mp3": 8162040, "海図広げてワルツに乗せて.mp3": 6194508, "紺青の 水底良き処 偶にはお越し.mp3": 10099304, "来る者は拒むが、去ル者ハ ...
创建时间: 2019-01-28 09:23:39 大小:75.86 MB 文件数量:13 热度:6 最近下载:2022-11-12 08:39:57
    {"32. Mistik - Beta.mp3": 7392033, "07. Dirtwire - Viento.mp3": 9032644, "06. Matt - Another Way.mp3": 11324185, "19. Wavelen - Blackbox.mp3": 12781465, "25. Amb - Pizza Slicer.mp3": 7839372, "04. Filastine - Halcyon.mp3": 9935440, "75. Synkrome - ...
创建时间: 2019-01-28 21:06:50 大小:713.23 MB 文件数量:75 热度:6 最近下载:2022-11-12 12:59:51
    {"14. 2D Project - Id.mp3": 11099356, "06. Snake - Space Theme.mp3": 15680191, "09. DJ S@N4ES - Vanilla.mp3": 18750101, "15. Awells - Sore Outro.mp3": 8330380, "20. Sparkwell - Fiorina.mp3": 16596568, "07. CJ Bullet - Dead Star.mp3": 11883034, "08. 2D ...
创建时间: 2019-01-29 23:34:57 大小:244.69 MB 文件数量:20 热度:5 最近下载:2022-11-12 10:21:28
    ... Become a Strumming, Chords and Melodic Uke Ninja by Erich Andreas ... Become a Strumming, Chords and Melodic Uke Ninja by Erich Andreas ... Become a Strumming, Chords and Melodic Uke Ninja by Erich Andreas ... a Strumming, Chords and Melodic Uke Ninja by Erich Andreas ...
创建时间: 2019-01-30 02:51:51 大小:5.02 MB 文件数量:6 热度:10 最近下载:2024-11-19 17:42:02
    {"[2010.06.06] Sennen Gensou Koukyousai": {"Scans": {"Image0001.jpg": 5833908, "Image0002.JPG": 5955672, "Image0003.JPG": 3208049, "Image0004.JPG": 2991453, "Image0005.JPG": 1095465}, "cover.jpg": 96064, "tracklist.cue": 1938, "audiochecker.log": 894, "10 ...
创建时间: 2019-01-30 03:08:04 大小:441.47 MB 文件数量:35 热度:5 最近下载:2022-11-12 10:16:17
    {"front.jpg": 63880, "06 - Roots.mp3": 6878968, "04 - Plunge.mp3": 8862187, "07 - Runaway.mp3": 7636523, "02 - On My Way.mp3": 9528838, "11 - Lost To You.mp3": 6467292, "10 - Come Outside.mp3": 7785955, "12 - Dreams of Air.mp3": 10293712, "03 - Imperfect ...
创建时间: 2019-01-30 05:13:40 大小:108.84 MB 文件数量:16 热度:6 最近下载:2025-04-20 23:19:02
    {"BLVD": {"Dream On.mp3": 8861908, "You And I.mp3": 9601695, "Far From Over.mp3": 9995622, "Never Give Up.mp3": 11106348, "Western Skies.mp3": 8822201, "You're For Me.mp3": 8903704, "In The Twilight.mp3": 12024814, "Missing Persons.mp3": 9768879, "Under ...
创建时间: 2019-01-30 05:40:00 大小:5.23 GB 文件数量:716 热度:5 最近下载:2022-11-12 09:39:57
    {"Ambition 2006": {"(10) AMBITION - 10. Hunger .mp3": 10992455, "(01) AMBITION - 01. Hold On .mp3": 11285026, "(08) AMBITION - 08. Together .mp3": 11182626, "(09) AMBITION - 09. Too Much d .mp3": 12442773, "(02) AMBITION - 02. Hypocrities .mp3": ...
创建时间: 2019-01-30 06:00:56 大小:568.35 MB 文件数量:62 热度:9 最近下载:2025-03-04 09:49:03
    {"cover.jpg": 157296, "32_f8th_-_presence-asperity.mp3": 16478728, "33_x_factor_-_hydra-asperity.mp3": 9932442, "40_one_species_-_elenin-asperity.mp3": 16079577, "61_f8th_-_broken_senses-asperity.mp3": 13895740, "69_one_species_-_ripper-asperity.mp3": ...
创建时间: 2019-01-30 14:32:15 大小:1.25 GB 文件数量:85 热度:6 最近下载:2022-11-12 08:40:25